sensor_id;sensor_type;location;lat;lon;timestamp;P1;durP1;ratioP1;P2;durP2;ratioP2
19664;SDS011;9980;51.020;7.772;2023-03-14T00:02:14;2.97;;;1.90;;
19664;SDS011;9980;51.020;7.772;2023-03-14T00:04:41;1.80;;;1.70;;
19664;SDS011;9980;51.020;7.772;2023-03-14T00:07:10;4.67;;;2.00;;
19664;SDS011;9980;51.020;7.772;2023-03-14T00:09:37;1.80;;;1.70;;
19664;SDS011;9980;51.020;7.772;2023-03-14T00:12:05;2.97;;;1.87;;
19664;SDS011;9980;51.020;7.772;2023-03-14T00:14:33;2.17;;;1.80;;
19664;SDS011;9980;51.020;7.772;2023-03-14T00:17:00;4.00;;;1.80;;
19664;SDS011;9980;51.020;7.772;2023-03-14T00:19:27;2.70;;;1.80;;
19664;SDS011;9980;51.020;7.772;2023-03-14T00:21:54;2.83;;;2.43;;
19664;SDS011;9980;51.020;7.772;2023-03-14T00:24:21;2.03;;;1.90;;
19664;SDS011;9980;51.020;7.772;2023-03-14T00:26:48;2.33;;;1.80;;
19664;SDS011;9980;51.020;7.772;2023-03-14T00:29:15;2.13;;;1.80;;
19664;SDS011;9980;51.020;7.772;2023-03-14T00:31:44;4.50;;;1.80;;
19664;SDS011;9980;51.020;7.772;2023-03-14T00:34:11;2.27;;;1.90;;
19664;SDS011;9980;51.020;7.772;2023-03-14T00:36:38;2.60;;;1.87;;
19664;SDS011;9980;51.020;7.772;2023-03-14T00:39:05;1.93;;;1.77;;
19664;SDS011;9980;51.020;7.772;2023-03-14T00:41:31;3.43;;;1.63;;
19664;SDS011;9980;51.020;7.772;2023-03-14T00:43:59;2.30;;;2.10;;
19664;SDS011;9980;51.020;7.772;2023-03-14T00:46:26;2.90;;;1.90;;
19664;SDS011;9980;51.020;7.772;2023-03-14T00:48:53;1.80;;;1.70;;
19664;SDS011;9980;51.020;7.772;2023-03-14T00:51:19;3.57;;;1.83;;
19664;SDS011;9980;51.020;7.772;2023-03-14T00:53:46;2.83;;;2.00;;
19664;SDS011;9980;51.020;7.772;2023-03-14T00:56:14;2.60;;;2.00;;
19664;SDS011;9980;51.020;7.772;2023-03-14T00:58:41;3.07;;;1.90;;
19664;SDS011;9980;51.020;7.772;2023-03-14T01:01:10;3.33;;;2.00;;
19664;SDS011;9980;51.020;7.772;2023-03-14T01:03:41;3.27;;;2.10;;
19664;SDS011;9980;51.020;7.772;2023-03-14T01:08:42;5.47;;;2.30;;
19664;SDS011;9980;51.020;7.772;2023-03-14T01:11:15;2.57;;;2.17;;
19664;SDS011;9980;51.020;7.772;2023-03-14T01:13:48;2.10;;;1.90;;
19664;SDS011;9980;51.020;7.772;2023-03-14T01:16:16;4.90;;;2.30;;
19664;SDS011;9980;51.020;7.772;2023-03-14T01:18:44;3.17;;;1.97;;
19664;SDS011;9980;51.020;7.772;2023-03-14T01:21:16;5.53;;;2.20;;
19664;SDS011;9980;51.020;7.772;2023-03-14T01:23:50;3.80;;;2.10;;
19664;SDS011;9980;51.020;7.772;2023-03-14T01:26:20;3.80;;;2.10;;
19664;SDS011;9980;51.020;7.772;2023-03-14T01:28:50;3.63;;;2.03;;
19664;SDS011;9980;51.020;7.772;2023-03-14T01:31:20;2.57;;;1.90;;
19664;SDS011;9980;51.020;7.772;2023-03-14T01:33:47;3.43;;;2.20;;
19664;SDS011;9980;51.020;7.772;2023-03-14T01:36:14;4.07;;;2.33;;
19664;SDS011;9980;51.020;7.772;2023-03-14T01:38:42;4.37;;;2.20;;
19664;SDS011;9980;51.020;7.772;2023-03-14T01:41:17;3.70;;;2.27;;
19664;SDS011;9980;51.020;7.772;2023-03-14T01:43:51;3.23;;;2.20;;
19664;SDS011;9980;51.020;7.772;2023-03-14T01:46:28;2.80;;;1.93;;
19664;SDS011;9980;51.020;7.772;2023-03-14T01:49:13;4.83;;;2.00;;
19664;SDS011;9980;51.020;7.772;2023-03-14T01:52:07;5.10;;;2.50;;
19664;SDS011;9980;51.020;7.772;2023-03-14T01:54:43;2.30;;;2.10;;
19664;SDS011;9980;51.020;7.772;2023-03-14T01:57:18;2.77;;;2.07;;
19664;SDS011;9980;51.020;7.772;2023-03-14T01:59:59;4.43;;;2.30;;
19664;SDS011;9980;51.020;7.772;2023-03-14T02:02:50;4.57;;;2.27;;
19664;SDS011;9980;51.020;7.772;2023-03-14T02:05:25;8.10;;;2.30;;
19664;SDS011;9980;51.020;7.772;2023-03-14T02:08:02;3.40;;;1.90;;
19664;SDS011;9980;51.020;7.772;2023-03-14T02:10:49;3.97;;;2.10;;
19664;SDS011;9980;51.020;7.772;2023-03-14T02:13:23;3.57;;;2.00;;
19664;SDS011;9980;51.020;7.772;2023-03-14T02:16:09;4.70;;;2.70;;
19664;SDS011;9980;51.020;7.772;2023-03-14T02:18:46;5.20;;;2.20;;
19664;SDS011;9980;51.020;7.772;2023-03-14T02:21:43;3.97;;;2.40;;
19664;SDS011;9980;51.020;7.772;2023-03-14T02:24:45;4.73;;;2.23;;
19664;SDS011;9980;51.020;7.772;2023-03-14T02:27:29;4.40;;;2.13;;
19664;SDS011;9980;51.020;7.772;2023-03-14T02:29:58;5.10;;;2.27;;
19664;SDS011;9980;51.020;7.772;2023-03-14T02:32:43;5.00;;;2.43;;
19664;SDS011;9980;51.020;7.772;2023-03-14T02:35:18;3.33;;;2.17;;
19664;SDS011;9980;51.020;7.772;2023-03-14T02:37:54;3.97;;;1.93;;
19664;SDS011;9980;51.020;7.772;2023-03-14T02:40:50;5.73;;;2.50;;
19664;SDS011;9980;51.020;7.772;2023-03-14T02:43:18;3.37;;;2.20;;
19664;SDS011;9980;51.020;7.772;2023-03-14T02:45:51;5.30;;;2.33;;
19664;SDS011;9980;51.020;7.772;2023-03-14T02:48:22;3.20;;;2.03;;
19664;SDS011;9980;51.020;7.772;2023-03-14T02:50:55;3.83;;;1.90;;
19664;SDS011;9980;51.020;7.772;2023-03-14T02:53:27;3.53;;;2.00;;
19664;SDS011;9980;51.020;7.772;2023-03-14T02:56:05;3.20;;;1.90;;
19664;SDS011;9980;51.020;7.772;2023-03-14T02:58:35;3.10;;;1.60;;
19664;SDS011;9980;51.020;7.772;2023-03-14T03:01:19;2.13;;;1.63;;
19664;SDS011;9980;51.020;7.772;2023-03-14T03:03:46;2.30;;;1.60;;
19664;SDS011;9980;51.020;7.772;2023-03-14T03:06:12;1.67;;;1.57;;
19664;SDS011;9980;51.020;7.772;2023-03-14T03:08:39;1.53;;;1.40;;
19664;SDS011;9980;51.020;7.772;2023-03-14T03:11:06;1.40;;;1.30;;
19664;SDS011;9980;51.020;7.772;2023-03-14T03:13:34;1.30;;;1.30;;
19664;SDS011;9980;51.020;7.772;2023-03-14T03:16:03;3.33;;;1.40;;
19664;SDS011;9980;51.020;7.772;2023-03-14T03:18:33;1.40;;;1.30;;
19664;SDS011;9980;51.020;7.772;2023-03-14T03:21:00;1.57;;;1.40;;
19664;SDS011;9980;51.020;7.772;2023-03-14T03:23:30;2.10;;;1.60;;
19664;SDS011;9980;51.020;7.772;2023-03-14T03:25:57;1.57;;;1.40;;
19664;SDS011;9980;51.020;7.772;2023-03-14T03:28:24;2.43;;;1.50;;
19664;SDS011;9980;51.020;7.772;2023-03-14T03:30:52;2.20;;;2.00;;
19664;SDS011;9980;51.020;7.772;2023-03-14T03:33:19;6.00;;;2.07;;
19664;SDS011;9980;51.020;7.772;2023-03-14T03:35:48;2.97;;;2.07;;
19664;SDS011;9980;51.020;7.772;2023-03-14T03:38:30;2.53;;;2.13;;
19664;SDS011;9980;51.020;7.772;2023-03-14T03:41:02;2.63;;;2.17;;
19664;SDS011;9980;51.020;7.772;2023-03-14T03:43:32;4.93;;;2.47;;
19664;SDS011;9980;51.020;7.772;2023-03-14T03:46:04;3.00;;;1.90;;
19664;SDS011;9980;51.020;7.772;2023-03-14T03:48:32;3.97;;;2.30;;
19664;SDS011;9980;51.020;7.772;2023-03-14T03:51:02;4.23;;;2.53;;
19664;SDS011;9980;51.020;7.772;2023-03-14T03:53:30;5.23;;;2.33;;
19664;SDS011;9980;51.020;7.772;2023-03-14T03:56:03;4.20;;;2.07;;
19664;SDS011;9980;51.020;7.772;2023-03-14T03:58:32;6.37;;;2.43;;
19664;SDS011;9980;51.020;7.772;2023-03-14T04:00:58;2.50;;;2.13;;
19664;SDS011;9980;51.020;7.772;2023-03-14T04:03:25;6.13;;;2.20;;
19664;SDS011;9980;51.020;7.772;2023-03-14T04:06:13;2.47;;;2.20;;
19664;SDS011;9980;51.020;7.772;2023-03-14T04:08:43;2.80;;;2.37;;
19664;SDS011;9980;51.020;7.772;2023-03-14T04:11:22;4.80;;;2.37;;
19664;SDS011;9980;51.020;7.772;2023-03-14T04:14:03;6.27;;;2.20;;
19664;SDS011;9980;51.020;7.772;2023-03-14T04:16:30;4.10;;;2.27;;
19664;SDS011;9980;51.020;7.772;2023-03-14T04:19:03;4.43;;;2.10;;
19664;SDS011;9980;51.020;7.772;2023-03-14T04:21:31;6.50;;;2.50;;
19664;SDS011;9980;51.020;7.772;2023-03-14T04:23:58;8.00;;;2.30;;
19664;SDS011;9980;51.020;7.772;2023-03-14T04:26:28;6.27;;;2.57;;
19664;SDS011;9980;51.020;7.772;2023-03-14T04:28:55;4.47;;;2.43;;
19664;SDS011;9980;51.020;7.772;2023-03-14T04:31:22;6.27;;;2.73;;
19664;SDS011;9980;51.020;7.772;2023-03-14T04:33:50;4.73;;;2.50;;
19664;SDS011;9980;51.020;7.772;2023-03-14T04:36:24;9.17;;;2.70;;
19664;SDS011;9980;51.020;7.772;2023-03-14T04:38:52;7.13;;;2.47;;
19664;SDS011;9980;51.020;7.772;2023-03-14T04:41:20;5.17;;;3.00;;
19664;SDS011;9980;51.020;7.772;2023-03-14T04:43:47;6.73;;;2.90;;
19664;SDS011;9980;51.020;7.772;2023-03-14T04:46:13;3.53;;;2.20;;
19664;SDS011;9980;51.020;7.772;2023-03-14T04:48:42;4.77;;;2.30;;
19664;SDS011;9980;51.020;7.772;2023-03-14T04:51:09;4.30;;;2.40;;
19664;SDS011;9980;51.020;7.772;2023-03-14T04:53:36;3.47;;;2.37;;
19664;SDS011;9980;51.020;7.772;2023-03-14T04:56:06;4.03;;;2.30;;
19664;SDS011;9980;51.020;7.772;2023-03-14T04:58:38;4.23;;;2.37;;
19664;SDS011;9980;51.020;7.772;2023-03-14T05:01:06;4.67;;;2.07;;
19664;SDS011;9980;51.020;7.772;2023-03-14T05:03:51;5.13;;;2.50;;
19664;SDS011;9980;51.020;7.772;2023-03-14T05:06:45;3.10;;;2.03;;
19664;SDS011;9980;51.020;7.772;2023-03-14T05:09:25;6.30;;;2.30;;
19664;SDS011;9980;51.020;7.772;2023-03-14T05:12:18;5.57;;;2.20;;
19664;SDS011;9980;51.020;7.772;2023-03-14T05:15:04;4.23;;;2.30;;
19664;SDS011;9980;51.020;7.772;2023-03-14T05:17:56;3.97;;;2.07;;
19664;SDS011;9980;51.020;7.772;2023-03-14T05:20:43;3.27;;;2.17;;
19664;SDS011;9980;51.020;7.772;2023-03-14T05:23:44;4.53;;;2.03;;
19664;SDS011;9980;51.020;7.772;2023-03-14T05:26:28;4.13;;;2.07;;
19664;SDS011;9980;51.020;7.772;2023-03-14T05:29:18;6.37;;;2.13;;
19664;SDS011;9980;51.020;7.772;2023-03-14T05:32:04;3.67;;;1.90;;
19664;SDS011;9980;51.020;7.772;2023-03-14T05:34:57;2.07;;;1.60;;
19664;SDS011;9980;51.020;7.772;2023-03-14T05:37:36;1.83;;;1.70;;
19664;SDS011;9980;51.020;7.772;2023-03-14T05:40:29;2.50;;;1.70;;
19664;SDS011;9980;51.020;7.772;2023-03-14T05:43:03;2.07;;;1.50;;
19664;SDS011;9980;51.020;7.772;2023-03-14T05:45:40;2.80;;;1.60;;
19664;SDS011;9980;51.020;7.772;2023-03-14T05:48:29;2.03;;;1.73;;
19664;SDS011;9980;51.020;7.772;2023-03-14T05:51:05;2.43;;;1.70;;
19664;SDS011;9980;51.020;7.772;2023-03-14T05:53:41;3.33;;;1.67;;
19664;SDS011;9980;51.020;7.772;2023-03-14T05:56:34;1.30;;;1.30;;
19664;SDS011;9980;51.020;7.772;2023-03-14T05:59:10;1.40;;;1.30;;
19664;SDS011;9980;51.020;7.772;2023-03-14T06:01:48;2.97;;;1.50;;
19664;SDS011;9980;51.020;7.772;2023-03-14T06:04:19;1.80;;;1.40;;
19664;SDS011;9980;51.020;7.772;2023-03-14T06:06:52;1.50;;;1.40;;
19664;SDS011;9980;51.020;7.772;2023-03-14T06:09:20;2.40;;;1.30;;
19664;SDS011;9980;51.020;7.772;2023-03-14T06:11:50;1.97;;;1.30;;
19664;SDS011;9980;51.020;7.772;2023-03-14T06:14:17;1.33;;;1.23;;
19664;SDS011;9980;51.020;7.772;2023-03-14T06:16:46;1.40;;;1.30;;
19664;SDS011;9980;51.020;7.772;2023-03-14T06:19:18;1.57;;;1.33;;
19664;SDS011;9980;51.020;7.772;2023-03-14T06:21:45;1.90;;;1.20;;
19664;SDS011;9980;51.020;7.772;2023-03-14T06:24:12;1.20;;;1.20;;
19664;SDS011;9980;51.020;7.772;2023-03-14T06:26:44;1.33;;;1.23;;
19664;SDS011;9980;51.020;7.772;2023-03-14T06:29:11;1.73;;;1.40;;
19664;SDS011;9980;51.020;7.772;2023-03-14T06:31:40;1.53;;;1.43;;
19664;SDS011;9980;51.020;7.772;2023-03-14T06:34:07;1.40;;;1.30;;
19664;SDS011;9980;51.020;7.772;2023-03-14T06:36:34;1.30;;;1.20;;
19664;SDS011;9980;51.020;7.772;2023-03-14T06:39:02;1.30;;;1.20;;
19664;SDS011;9980;51.020;7.772;2023-03-14T06:41:32;1.30;;;1.20;;
19664;SDS011;9980;51.020;7.772;2023-03-14T06:43:59;1.27;;;1.20;;
19664;SDS011;9980;51.020;7.772;2023-03-14T06:46:26;1.20;;;1.20;;
19664;SDS011;9980;51.020;7.772;2023-03-14T06:48:53;1.33;;;1.23;;
19664;SDS011;9980;51.020;7.772;2023-03-14T06:51:20;1.10;;;1.10;;
19664;SDS011;9980;51.020;7.772;2023-03-14T06:53:48;1.53;;;1.30;;
19664;SDS011;9980;51.020;7.772;2023-03-14T06:56:16;1.30;;;1.20;;
19664;SDS011;9980;51.020;7.772;2023-03-14T06:58:43;1.20;;;1.20;;
19664;SDS011;9980;51.020;7.772;2023-03-14T07:01:21;1.10;;;1.10;;
19664;SDS011;9980;51.020;7.772;2023-03-14T07:03:53;1.27;;;1.17;;
19664;SDS011;9980;51.020;7.772;2023-03-14T07:06:21;1.23;;;1.23;;
19664;SDS011;9980;51.020;7.772;2023-03-14T07:08:48;2.63;;;1.27;;
19664;SDS011;9980;51.020;7.772;2023-03-14T07:11:16;1.10;;;1.10;;
19664;SDS011;9980;51.020;7.772;2023-03-14T07:13:43;1.43;;;1.20;;
19664;SDS011;9980;51.020;7.772;2023-03-14T07:16:10;1.00;;;1.00;;
19664;SDS011;9980;51.020;7.772;2023-03-14T07:18:37;1.20;;;1.20;;
19664;SDS011;9980;51.020;7.772;2023-03-14T07:21:05;1.30;;;1.20;;
19664;SDS011;9980;51.020;7.772;2023-03-14T07:23:35;1.10;;;1.10;;
19664;SDS011;9980;51.020;7.772;2023-03-14T07:26:02;2.47;;;1.30;;
19664;SDS011;9980;51.020;7.772;2023-03-14T07:28:31;1.30;;;1.20;;
19664;SDS011;9980;51.020;7.772;2023-03-14T07:31:03;1.23;;;1.17;;
19664;SDS011;9980;51.020;7.772;2023-03-14T07:33:31;1.10;;;1.10;;
19664;SDS011;9980;51.020;7.772;2023-03-14T07:35:59;1.10;;;1.10;;
19664;SDS011;9980;51.020;7.772;2023-03-14T07:38:27;1.10;;;1.10;;
19664;SDS011;9980;51.020;7.772;2023-03-14T07:41:13;1.10;;;1.10;;
19664;SDS011;9980;51.020;7.772;2023-03-14T07:43:48;1.20;;;1.00;;
19664;SDS011;9980;51.020;7.772;2023-03-14T07:46:15;1.43;;;1.27;;
19664;SDS011;9980;51.020;7.772;2023-03-14T07:48:43;1.10;;;1.10;;
19664;SDS011;9980;51.020;7.772;2023-03-14T07:51:10;1.70;;;1.20;;
19664;SDS011;9980;51.020;7.772;2023-03-14T07:53:37;1.07;;;1.07;;
19664;SDS011;9980;51.020;7.772;2023-03-14T07:56:05;1.60;;;1.50;;
19664;SDS011;9980;51.020;7.772;2023-03-14T07:58:32;1.10;;;1.10;;
19664;SDS011;9980;51.020;7.772;2023-03-14T08:00:59;1.20;;;1.10;;
19664;SDS011;9980;51.020;7.772;2023-03-14T08:03:26;1.47;;;1.10;;
19664;SDS011;9980;51.020;7.772;2023-03-14T08:05:53;1.00;;;1.00;;
19664;SDS011;9980;51.020;7.772;2023-03-14T08:08:20;1.10;;;1.10;;
19664;SDS011;9980;51.020;7.772;2023-03-14T08:10:47;1.10;;;1.00;;
19664;SDS011;9980;51.020;7.772;2023-03-14T08:13:14;1.10;;;1.00;;
19664;SDS011;9980;51.020;7.772;2023-03-14T08:15:41;1.30;;;1.20;;
19664;SDS011;9980;51.020;7.772;2023-03-14T08:18:08;1.10;;;1.10;;
19664;SDS011;9980;51.020;7.772;2023-03-14T08:20:35;1.00;;;1.00;;
19664;SDS011;9980;51.020;7.772;2023-03-14T08:23:02;1.00;;;1.00;;
19664;SDS011;9980;51.020;7.772;2023-03-14T08:25:30;1.00;;;1.00;;
19664;SDS011;9980;51.020;7.772;2023-03-14T08:27:58;1.20;;;1.10;;
19664;SDS011;9980;51.020;7.772;2023-03-14T08:30:25;1.00;;;1.00;;
19664;SDS011;9980;51.020;7.772;2023-03-14T08:32:52;1.00;;;1.00;;
19664;SDS011;9980;51.020;7.772;2023-03-14T08:35:19;1.00;;;1.00;;
19664;SDS011;9980;51.020;7.772;2023-03-14T08:37:46;1.00;;;1.00;;
19664;SDS011;9980;51.020;7.772;2023-03-14T08:40:13;1.00;;;1.00;;
19664;SDS011;9980;51.020;7.772;2023-03-14T08:42:41;1.43;;;1.10;;
19664;SDS011;9980;51.020;7.772;2023-03-14T08:45:10;1.20;;;1.00;;
19664;SDS011;9980;51.020;7.772;2023-03-14T08:47:40;1.10;;;1.00;;
19664;SDS011;9980;51.020;7.772;2023-03-14T08:50:09;1.00;;;1.00;;
19664;SDS011;9980;51.020;7.772;2023-03-14T08:52:41;0.90;;;0.90;;
19664;SDS011;9980;51.020;7.772;2023-03-14T08:55:08;1.00;;;1.00;;
19664;SDS011;9980;51.020;7.772;2023-03-14T08:57:36;0.90;;;0.90;;
19664;SDS011;9980;51.020;7.772;2023-03-14T09:00:03;0.93;;;0.93;;
19664;SDS011;9980;51.020;7.772;2023-03-14T09:02:36;0.90;;;0.90;;
19664;SDS011;9980;51.020;7.772;2023-03-14T09:05:04;1.10;;;1.10;;
19664;SDS011;9980;51.020;7.772;2023-03-14T09:07:31;1.00;;;1.00;;
19664;SDS011;9980;51.020;7.772;2023-03-14T09:09:58;0.90;;;0.90;;
19664;SDS011;9980;51.020;7.772;2023-03-14T09:12:25;0.90;;;0.90;;
19664;SDS011;9980;51.020;7.772;2023-03-14T09:14:52;0.90;;;0.90;;
19664;SDS011;9980;51.020;7.772;2023-03-14T09:17:19;0.90;;;0.90;;
19664;SDS011;9980;51.020;7.772;2023-03-14T09:19:46;0.90;;;0.90;;
19664;SDS011;9980;51.020;7.772;2023-03-14T09:22:13;1.10;;;1.10;;
19664;SDS011;9980;51.020;7.772;2023-03-14T09:24:40;0.80;;;0.80;;
19664;SDS011;9980;51.020;7.772;2023-03-14T09:27:08;1.00;;;1.00;;
19664;SDS011;9980;51.020;7.772;2023-03-14T09:29:35;0.90;;;0.90;;
19664;SDS011;9980;51.020;7.772;2023-03-14T09:32:01;0.97;;;0.97;;
19664;SDS011;9980;51.020;7.772;2023-03-14T09:34:29;1.10;;;1.10;;
19664;SDS011;9980;51.020;7.772;2023-03-14T09:36:56;0.80;;;0.80;;
19664;SDS011;9980;51.020;7.772;2023-03-14T09:39:23;0.87;;;0.87;;
19664;SDS011;9980;51.020;7.772;2023-03-14T09:41:51;0.90;;;0.90;;
19664;SDS011;9980;51.020;7.772;2023-03-14T09:44:25;0.90;;;0.90;;
19664;SDS011;9980;51.020;7.772;2023-03-14T09:47:06;1.20;;;1.20;;
19664;SDS011;9980;51.020;7.772;2023-03-14T09:49:39;1.37;;;1.27;;
19664;SDS011;9980;51.020;7.772;2023-03-14T09:52:12;1.03;;;1.03;;
19664;SDS011;9980;51.020;7.772;2023-03-14T09:54:52;1.03;;;1.03;;
19664;SDS011;9980;51.020;7.772;2023-03-14T09:57:25;1.10;;;1.00;;
19664;SDS011;9980;51.020;7.772;2023-03-14T09:59:54;1.10;;;1.10;;
19664;SDS011;9980;51.020;7.772;2023-03-14T10:02:40;1.00;;;1.00;;
19664;SDS011;9980;51.020;7.772;2023-03-14T10:05:17;0.90;;;0.90;;
19664;SDS011;9980;51.020;7.772;2023-03-14T10:07:47;1.00;;;1.00;;
19664;SDS011;9980;51.020;7.772;2023-03-14T10:10:21;1.00;;;1.00;;
19664;SDS011;9980;51.020;7.772;2023-03-14T10:12:58;1.00;;;1.00;;
19664;SDS011;9980;51.020;7.772;2023-03-14T10:15:39;0.90;;;0.90;;
19664;SDS011;9980;51.020;7.772;2023-03-14T10:18:10;1.00;;;1.00;;
19664;SDS011;9980;51.020;7.772;2023-03-14T10:20:43;0.97;;;0.97;;
19664;SDS011;9980;51.020;7.772;2023-03-14T10:25:45;2.10;;;1.00;;
19664;SDS011;9980;51.020;7.772;2023-03-14T10:28:27;1.00;;;1.00;;
19664;SDS011;9980;51.020;7.772;2023-03-14T10:30:58;1.00;;;1.00;;
19664;SDS011;9980;51.020;7.772;2023-03-14T10:33:30;1.00;;;1.00;;
19664;SDS011;9980;51.020;7.772;2023-03-14T10:36:06;1.10;;;1.00;;
19664;SDS011;9980;51.020;7.772;2023-03-14T10:38:57;4.20;;;1.20;;
19664;SDS011;9980;51.020;7.772;2023-03-14T10:41:48;1.13;;;1.13;;
19664;SDS011;9980;51.020;7.772;2023-03-14T10:44:22;1.13;;;1.13;;
19664;SDS011;9980;51.020;7.772;2023-03-14T10:46:55;1.60;;;1.50;;
19664;SDS011;9980;51.020;7.772;2023-03-14T10:49:31;1.10;;;1.10;;
19664;SDS011;9980;51.020;7.772;2023-03-14T10:54:49;1.63;;;1.53;;
19664;SDS011;9980;51.020;7.772;2023-03-14T10:57:28;1.27;;;1.20;;
19664;SDS011;9980;51.020;7.772;2023-03-14T10:59:55;2.00;;;1.90;;
19664;SDS011;9980;51.020;7.772;2023-03-14T11:08:24;1.50;;;1.40;;
19664;SDS011;9980;51.020;7.772;2023-03-14T11:11:22;1.50;;;1.40;;
19664;SDS011;9980;51.020;7.772;2023-03-14T11:13:58;1.67;;;1.57;;
19664;SDS011;9980;51.020;7.772;2023-03-14T11:17:05;1.60;;;1.50;;
19664;SDS011;9980;51.020;7.772;2023-03-14T11:19:49;1.53;;;1.43;;
19664;SDS011;9980;51.020;7.772;2023-03-14T11:22:41;1.53;;;1.43;;
19664;SDS011;9980;51.020;7.772;2023-03-14T11:31:12;2.47;;;2.27;;
19664;SDS011;9980;51.020;7.772;2023-03-14T11:37:20;1.93;;;1.83;;
19664;SDS011;9980;51.020;7.772;2023-03-14T11:40:05;1.70;;;1.60;;
19664;SDS011;9980;51.020;7.772;2023-03-14T11:42:44;2.20;;;2.00;;
19664;SDS011;9980;51.020;7.772;2023-03-14T11:45:29;5.23;;;4.40;;
19664;SDS011;9980;51.020;7.772;2023-03-14T11:51:05;13.27;;;6.63;;
19664;SDS011;9980;51.020;7.772;2023-03-14T11:53:53;4.07;;;3.33;;
19664;SDS011;9980;51.020;7.772;2023-03-14T11:56:36;2.40;;;2.30;;
19664;SDS011;9980;51.020;7.772;2023-03-14T11:59:23;3.23;;;3.03;;
19664;SDS011;9980;51.020;7.772;2023-03-14T12:02:09;12.30;;;9.47;;
19664;SDS011;9980;51.020;7.772;2023-03-14T12:05:22;11.63;;;8.67;;
19664;SDS011;9980;51.020;7.772;2023-03-14T12:11:19;2.60;;;2.40;;
19664;SDS011;9980;51.020;7.772;2023-03-14T12:14:30;2.00;;;1.90;;
19664;SDS011;9980;51.020;7.772;2023-03-14T12:17:07;1.90;;;1.80;;
19664;SDS011;9980;51.020;7.772;2023-03-14T12:19:47;1.70;;;1.60;;
19664;SDS011;9980;51.020;7.772;2023-03-14T12:22:51;2.00;;;1.90;;
19664;SDS011;9980;51.020;7.772;2023-03-14T12:25:26;2.30;;;2.20;;
19664;SDS011;9980;51.020;7.772;2023-03-14T12:33:39;3.07;;;2.77;;
19664;SDS011;9980;51.020;7.772;2023-03-14T12:36:01;3.00;;;2.80;;
19664;SDS011;9980;51.020;7.772;2023-03-14T12:41:20;2.57;;;2.40;;
19664;SDS011;9980;51.020;7.772;2023-03-14T12:43:52;2.73;;;2.53;;
19664;SDS011;9980;51.020;7.772;2023-03-14T12:48:56;2.57;;;2.37;;
19664;SDS011;9980;51.020;7.772;2023-03-14T12:54:21;2.70;;;2.50;;
19664;SDS011;9980;51.020;7.772;2023-03-14T13:00:23;3.00;;;2.80;;
19664;SDS011;9980;51.020;7.772;2023-03-14T13:03:12;3.43;;;2.40;;
19664;SDS011;9980;51.020;7.772;2023-03-14T13:05:54;2.80;;;2.70;;
19664;SDS011;9980;51.020;7.772;2023-03-14T13:08:41;2.30;;;2.20;;
19664;SDS011;9980;51.020;7.772;2023-03-14T13:11:16;2.80;;;2.60;;
19664;SDS011;9980;51.020;7.772;2023-03-14T13:13:47;2.77;;;2.60;;
19664;SDS011;9980;51.020;7.772;2023-03-14T13:16:21;2.90;;;2.60;;
19664;SDS011;9980;51.020;7.772;2023-03-14T13:18:49;3.00;;;2.80;;
19664;SDS011;9980;51.020;7.772;2023-03-14T13:21:27;3.13;;;2.93;;
19664;SDS011;9980;51.020;7.772;2023-03-14T13:24:03;2.83;;;2.63;;
19664;SDS011;9980;51.020;7.772;2023-03-14T13:26:43;2.80;;;2.70;;
19664;SDS011;9980;51.020;7.772;2023-03-14T13:29:28;2.90;;;2.70;;
19664;SDS011;9980;51.020;7.772;2023-03-14T13:32:01;2.77;;;2.67;;
19664;SDS011;9980;51.020;7.772;2023-03-14T13:34:45;2.80;;;2.60;;
19664;SDS011;9980;51.020;7.772;2023-03-14T13:37:21;2.83;;;2.67;;
19664;SDS011;9980;51.020;7.772;2023-03-14T13:39:55;3.50;;;3.20;;
19664;SDS011;9980;51.020;7.772;2023-03-14T13:42:27;2.97;;;2.77;;
19664;SDS011;9980;51.020;7.772;2023-03-14T13:44:56;2.83;;;2.53;;
19664;SDS011;9980;51.020;7.772;2023-03-14T13:47:24;2.63;;;2.43;;
19664;SDS011;9980;51.020;7.772;2023-03-14T13:49:52;2.93;;;2.70;;
19664;SDS011;9980;51.020;7.772;2023-03-14T13:52:29;2.90;;;2.70;;
19664;SDS011;9980;51.020;7.772;2023-03-14T13:55:03;2.47;;;2.37;;
19664;SDS011;9980;51.020;7.772;2023-03-14T13:57:44;3.00;;;2.67;;
19664;SDS011;9980;51.020;7.772;2023-03-14T14:00:44;2.40;;;2.30;;
19664;SDS011;9980;51.020;7.772;2023-03-14T14:03:04;2.67;;;2.47;;
19664;SDS011;9980;51.020;7.772;2023-03-14T14:05:37;2.67;;;2.47;;
19664;SDS011;9980;51.020;7.772;2023-03-14T14:08:10;2.03;;;1.93;;
19664;SDS011;9980;51.020;7.772;2023-03-14T14:10:38;3.13;;;2.60;;
19664;SDS011;9980;51.020;7.772;2023-03-14T14:13:06;2.40;;;2.30;;
19664;SDS011;9980;51.020;7.772;2023-03-14T14:15:43;6.10;;;4.13;;
19664;SDS011;9980;51.020;7.772;2023-03-14T14:18:14;21.20;;;14.07;;
19664;SDS011;9980;51.020;7.772;2023-03-14T14:20:48;5.00;;;4.43;;
19664;SDS011;9980;51.020;7.772;2023-03-14T14:25:51;3.57;;;3.27;;
19664;SDS011;9980;51.020;7.772;2023-03-14T14:31:04;2.83;;;2.50;;
19664;SDS011;9980;51.020;7.772;2023-03-14T14:33:44;2.30;;;2.10;;
19664;SDS011;9980;51.020;7.772;2023-03-14T14:36:24;2.20;;;2.10;;
19664;SDS011;9980;51.020;7.772;2023-03-14T14:41:35;2.27;;;2.17;;
19664;SDS011;9980;51.020;7.772;2023-03-14T14:44:10;2.43;;;2.20;;
19664;SDS011;9980;51.020;7.772;2023-03-14T14:46:40;2.80;;;2.60;;
19664;SDS011;9980;51.020;7.772;2023-03-14T14:49:14;2.70;;;2.50;;
19664;SDS011;9980;51.020;7.772;2023-03-14T14:51:49;5.40;;;2.70;;
19664;SDS011;9980;51.020;7.772;2023-03-14T14:54:18;3.87;;;2.40;;
19664;SDS011;9980;51.020;7.772;2023-03-14T14:57:02;3.53;;;2.43;;
19664;SDS011;9980;51.020;7.772;2023-03-14T14:59:31;6.97;;;2.97;;
19664;SDS011;9980;51.020;7.772;2023-03-14T15:02:09;4.63;;;2.53;;
19664;SDS011;9980;51.020;7.772;2023-03-14T15:05:11;5.00;;;2.50;;
19664;SDS011;9980;51.020;7.772;2023-03-14T15:07:44;8.67;;;3.87;;
19664;SDS011;9980;51.020;7.772;2023-03-14T15:10:16;3.73;;;3.00;;
19664;SDS011;9980;51.020;7.772;2023-03-14T15:12:49;5.00;;;2.77;;
19664;SDS011;9980;51.020;7.772;2023-03-14T15:15:17;5.10;;;3.20;;
19664;SDS011;9980;51.020;7.772;2023-03-14T15:17:44;4.33;;;3.17;;
19664;SDS011;9980;51.020;7.772;2023-03-14T15:20:13;9.53;;;3.83;;
19664;SDS011;9980;51.020;7.772;2023-03-14T15:22:42;5.80;;;3.27;;
19664;SDS011;9980;51.020;7.772;2023-03-14T15:25:09;6.87;;;3.03;;
19664;SDS011;9980;51.020;7.772;2023-03-14T15:27:56;5.23;;;3.27;;
19664;SDS011;9980;51.020;7.772;2023-03-14T15:30:23;6.73;;;3.60;;
19664;SDS011;9980;51.020;7.772;2023-03-14T15:32:51;8.27;;;3.73;;
19664;SDS011;9980;51.020;7.772;2023-03-14T15:35:18;4.83;;;3.40;;
19664;SDS011;9980;51.020;7.772;2023-03-14T15:37:45;7.53;;;4.50;;
19664;SDS011;9980;51.020;7.772;2023-03-14T15:40:12;4.67;;;3.60;;
19664;SDS011;9980;51.020;7.772;2023-03-14T15:42:41;4.77;;;4.27;;
19664;SDS011;9980;51.020;7.772;2023-03-14T15:45:12;12.53;;;4.77;;
19664;SDS011;9980;51.020;7.772;2023-03-14T15:47:39;6.03;;;4.20;;
19664;SDS011;9980;51.020;7.772;2023-03-14T15:50:06;8.30;;;4.23;;
19664;SDS011;9980;51.020;7.772;2023-03-14T15:52:35;4.97;;;4.23;;
19664;SDS011;9980;51.020;7.772;2023-03-14T15:55:02;6.60;;;4.17;;
19664;SDS011;9980;51.020;7.772;2023-03-14T15:57:30;6.80;;;4.37;;
19664;SDS011;9980;51.020;7.772;2023-03-14T15:59:57;10.00;;;4.43;;
19664;SDS011;9980;51.020;7.772;2023-03-14T16:02:23;9.07;;;4.17;;
19664;SDS011;9980;51.020;7.772;2023-03-14T16:04:51;9.70;;;4.70;;
19664;SDS011;9980;51.020;7.772;2023-03-14T16:07:18;10.77;;;5.87;;
19664;SDS011;9980;51.020;7.772;2023-03-14T16:09:45;7.47;;;4.50;;
19664;SDS011;9980;51.020;7.772;2023-03-14T16:12:11;6.73;;;4.80;;
19664;SDS011;9980;51.020;7.772;2023-03-14T16:14:38;9.03;;;4.63;;
19664;SDS011;9980;51.020;7.772;2023-03-14T16:17:08;6.80;;;4.73;;
19664;SDS011;9980;51.020;7.772;2023-03-14T16:19:37;10.50;;;4.93;;
19664;SDS011;9980;51.020;7.772;2023-03-14T16:22:04;13.70;;;5.80;;
19664;SDS011;9980;51.020;7.772;2023-03-14T16:24:30;8.73;;;4.70;;
19664;SDS011;9980;51.020;7.772;2023-03-14T16:26:57;6.27;;;4.47;;
19664;SDS011;9980;51.020;7.772;2023-03-14T16:29:24;6.53;;;4.90;;
19664;SDS011;9980;51.020;7.772;2023-03-14T16:31:51;11.90;;;4.77;;